sensor_id;sensor_type;location;lat;lon;timestamp;pressure;altitude;pressure_sealevel;temperature;humidity
28000;BME280;15328;50.860;10.562;2022-10-16T00:04:28;96206.16;;;16.66;69.08
28000;BME280;15328;50.860;10.562;2022-10-16T00:09:28;96205.09;;;16.67;68.92
28000;BME280;15328;50.860;10.562;2022-10-16T00:14:29;96206.16;;;16.66;69.09
28000;BME280;15328;50.860;10.562;2022-10-16T00:19:29;96207.19;;;16.65;69.15
28000;BME280;15328;50.860;10.562;2022-10-16T00:24:29;96217.94;;;16.65;68.84
28000;BME280;15328;50.860;10.562;2022-10-16T00:29:30;96222.28;;;16.66;69.39
28000;BME280;15328;50.860;10.562;2022-10-16T00:34:30;96224.94;;;16.66;69.14
28000;BME280;15328;50.860;10.562;2022-10-16T00:39:30;96221.09;;;16.52;69.87
28000;BME280;15328;50.860;10.562;2022-10-16T00:49:47;96210.16;;;16.64;69.06
28000;BME280;15328;50.860;10.562;2022-10-16T00:54:49;96202.34;;;16.62;69.14
28000;BME280;15328;50.860;10.562;2022-10-16T00:59:51;96231.31;;;16.55;69.61
28000;BME280;15328;50.860;10.562;2022-10-16T01:04:53;96214.66;;;16.53;69.42
28000;BME280;15328;50.860;10.562;2022-10-16T01:15:29;96229.88;;;16.43;69.77
28000;BME280;15328;50.860;10.562;2022-10-16T01:20:34;96224.28;;;16.44;69.44
28000;BME280;15328;50.860;10.562;2022-10-16T01:31:01;96234.53;;;16.52;68.79
28000;BME280;15328;50.860;10.562;2022-10-16T01:36:09;96242.28;;;16.49;69.50
28000;BME280;15328;50.860;10.562;2022-10-16T01:46:21;96256.81;;;16.53;68.77
28000;BME280;15328;50.860;10.562;2022-10-16T01:51:23;96244.16;;;16.48;68.62
28000;BME280;15328;50.860;10.562;2022-10-16T01:56:25;96250.81;;;16.41;68.47
28000;BME280;15328;50.860;10.562;2022-10-16T02:01:27;96255.13;;;16.42;68.33
28000;BME280;15328;50.860;10.562;2022-10-16T02:06:29;96249.00;;;16.46;68.23
28000;BME280;15328;50.860;10.562;2022-10-16T02:11:30;96261.56;;;16.41;67.65
28000;BME280;15328;50.860;10.562;2022-10-16T02:16:39;96246.50;;;16.39;68.23
28000;BME280;15328;50.860;10.562;2022-10-16T02:26:49;96269.00;;;16.28;68.35
28000;BME280;15328;50.860;10.562;2022-10-16T02:32:01;96281.03;;;16.21;68.60
28000;BME280;15328;50.860;10.562;2022-10-16T02:37:04;96267.06;;;16.19;68.43
28000;BME280;15328;50.860;10.562;2022-10-16T02:42:10;96263.59;;;16.23;67.97
28000;BME280;15328;50.860;10.562;2022-10-16T02:47:11;96259.06;;;16.29;67.57
28000;BME280;15328;50.860;10.562;2022-10-16T02:52:12;96270.59;;;16.24;67.53
28000;BME280;15328;50.860;10.562;2022-10-16T02:57:12;96260.41;;;16.26;67.73
28000;BME280;15328;50.860;10.562;2022-10-16T03:02:13;96267.09;;;16.24;67.80
28000;BME280;15328;50.860;10.562;2022-10-16T03:07:13;96271.66;;;16.23;67.62
28000;BME280;15328;50.860;10.562;2022-10-16T03:12:14;96256.34;;;16.24;67.92
28000;BME280;15328;50.860;10.562;2022-10-16T03:17:14;96251.25;;;16.22;67.89
28000;BME280;15328;50.860;10.562;2022-10-16T03:22:16;96255.16;;;16.10;68.30
28000;BME280;15328;50.860;10.562;2022-10-16T03:27:17;96261.72;;;16.24;67.68
28000;BME280;15328;50.860;10.562;2022-10-16T03:32:17;96273.16;;;16.14;67.93
28000;BME280;15328;50.860;10.562;2022-10-16T03:37:18;96283.66;;;16.16;68.35
28000;BME280;15328;50.860;10.562;2022-10-16T03:42:18;96260.88;;;16.18;68.33
28000;BME280;15328;50.860;10.562;2022-10-16T03:47:19;96266.34;;;16.33;67.63
28000;BME280;15328;50.860;10.562;2022-10-16T03:52:21;96260.69;;;16.30;67.78
28000;BME280;15328;50.860;10.562;2022-10-16T03:57:22;96269.00;;;16.28;67.68
28000;BME280;15328;50.860;10.562;2022-10-16T04:02:22;96280.53;;;16.29;68.38
28000;BME280;15328;50.860;10.562;2022-10-16T04:07:23;96286.19;;;16.32;67.85
28000;BME280;15328;50.860;10.562;2022-10-16T04:12:23;96293.38;;;16.22;68.44
28000;BME280;15328;50.860;10.562;2022-10-16T04:17:23;96288.00;;;16.22;68.46
28000;BME280;15328;50.860;10.562;2022-10-16T04:22:23;96292.38;;;16.01;69.40
28000;BME280;15328;50.860;10.562;2022-10-16T04:27:24;96303.38;;;15.99;69.54
28000;BME280;15328;50.860;10.562;2022-10-16T04:32:25;96313.91;;;16.06;69.25
28000;BME280;15328;50.860;10.562;2022-10-16T04:37:26;96319.59;;;16.15;69.22
28000;BME280;15328;50.860;10.562;2022-10-16T04:42:27;96329.78;;;16.13;69.20
28000;BME280;15328;50.860;10.562;2022-10-16T04:47:27;96347.03;;;16.22;68.75
28000;BME280;15328;50.860;10.562;2022-10-16T04:52:28;96348.00;;;16.11;69.65
28000;BME280;15328;50.860;10.562;2022-10-16T04:57:29;96353.22;;;16.22;68.86
28000;BME280;15328;50.860;10.562;2022-10-16T05:02:30;96347.84;;;16.22;68.91
28000;BME280;15328;50.860;10.562;2022-10-16T05:07:30;96354.59;;;16.25;68.67
28000;BME280;15328;50.860;10.562;2022-10-16T05:12:30;96367.75;;;16.26;68.96
28000;BME280;15328;50.860;10.562;2022-10-16T05:17:31;96369.28;;;16.17;69.59
28000;BME280;15328;50.860;10.562;2022-10-16T05:22:31;96371.09;;;16.12;69.65
28000;BME280;15328;50.860;10.562;2022-10-16T05:27:31;96385.06;;;16.14;69.69
28000;BME280;15328;50.860;10.562;2022-10-16T05:32:32;96399.94;;;15.99;70.00
28000;BME280;15328;50.860;10.562;2022-10-16T05:37:32;96375.84;;;16.04;69.33
28000;BME280;15328;50.860;10.562;2022-10-16T05:42:33;96357.94;;;16.10;69.35
28000;BME280;15328;50.860;10.562;2022-10-16T05:47:33;96346.69;;;16.13;68.75
28000;BME280;15328;50.860;10.562;2022-10-16T05:52:34;96345.28;;;16.05;68.86
28000;BME280;15328;50.860;10.562;2022-10-16T05:57:34;96346.25;;;15.94;69.07
28000;BME280;15328;50.860;10.562;2022-10-16T06:02:34;96344.00;;;15.86;69.11
28000;BME280;15328;50.860;10.562;2022-10-16T06:07:35;96357.28;;;15.98;68.77
28000;BME280;15328;50.860;10.562;2022-10-16T06:12:36;96360.56;;;15.78;69.20
28000;BME280;15328;50.860;10.562;2022-10-16T06:17:36;96377.16;;;15.75;69.32
28000;BME280;15328;50.860;10.562;2022-10-16T06:22:36;96377.66;;;15.72;69.22
28000;BME280;15328;50.860;10.562;2022-10-16T06:27:39;96377.44;;;15.57;69.88
28000;BME280;15328;50.860;10.562;2022-10-16T06:32:40;96395.03;;;15.48;70.29
28000;BME280;15328;50.860;10.562;2022-10-16T06:37:40;96397.16;;;15.45;70.49
28000;BME280;15328;50.860;10.562;2022-10-16T06:42:41;96402.66;;;15.77;68.95
28000;BME280;15328;50.860;10.562;2022-10-16T06:47:42;96414.34;;;15.66;69.89
28000;BME280;15328;50.860;10.562;2022-10-16T06:52:42;96415.00;;;15.79;69.61
28000;BME280;15328;50.860;10.562;2022-10-16T06:57:43;96413.28;;;15.67;70.27
28000;BME280;15328;50.860;10.562;2022-10-16T07:02:44;96407.25;;;15.82;69.99
28000;BME280;15328;50.860;10.562;2022-10-16T07:07:44;96408.03;;;15.77;69.79
28000;BME280;15328;50.860;10.562;2022-10-16T07:12:44;96413.75;;;15.86;70.11
28000;BME280;15328;50.860;10.562;2022-10-16T07:17:45;96425.41;;;15.97;69.47
28000;BME280;15328;50.860;10.562;2022-10-16T07:22:45;96427.63;;;16.05;69.10
28000;BME280;15328;50.860;10.562;2022-10-16T07:27:46;96435.72;;;15.83;70.13
28000;BME280;15328;50.860;10.562;2022-10-16T07:32:46;96444.41;;;16.17;69.15
28000;BME280;15328;50.860;10.562;2022-10-16T07:37:46;96456.78;;;16.45;69.04
28000;BME280;15328;50.860;10.562;2022-10-16T07:42:47;96469.13;;;16.46;68.79
28000;BME280;15328;50.860;10.562;2022-10-16T07:47:47;96481.28;;;16.54;68.50
28000;BME280;15328;50.860;10.562;2022-10-16T07:52:48;96482.34;;;16.53;68.50
28000;BME280;15328;50.860;10.562;2022-10-16T07:57:49;96497.91;;;16.51;69.43
28000;BME280;15328;50.860;10.562;2022-10-16T08:02:49;96507.91;;;16.60;69.36
28000;BME280;15328;50.860;10.562;2022-10-16T08:07:49;96521.84;;;16.57;69.50
28000;BME280;15328;50.860;10.562;2022-10-16T08:12:51;96533.06;;;16.71;69.35
28000;BME280;15328;50.860;10.562;2022-10-16T08:18:02;96532.31;;;16.81;69.17
28000;BME280;15328;50.860;10.562;2022-10-16T08:23:03;96515.22;;;16.92;69.72
28000;BME280;15328;50.860;10.562;2022-10-16T08:28:08;96541.16;;;17.08;69.47
28000;BME280;15328;50.860;10.562;2022-10-16T08:33:09;96533.94;;;17.14;68.75
28000;BME280;15328;50.860;10.562;2022-10-16T08:38:09;96546.91;;;17.22;68.73
28000;BME280;15328;50.860;10.562;2022-10-16T08:54:04;96577.13;;;17.34;68.79
28000;BME280;15328;50.860;10.562;2022-10-16T08:59:09;96585.53;;;17.43;68.54
28000;BME280;15328;50.860;10.562;2022-10-16T09:15:07;96584.66;;;17.69;67.94
28000;BME280;15328;50.860;10.562;2022-10-16T09:25:32;96589.03;;;17.80;68.00
28000;BME280;15328;50.860;10.562;2022-10-16T09:30:32;96592.91;;;17.95;67.49
28000;BME280;15328;50.860;10.562;2022-10-16T09:35:42;96590.31;;;18.10;67.39
28000;BME280;15328;50.860;10.562;2022-10-16T09:40:44;96599.53;;;18.29;66.75
28000;BME280;15328;50.860;10.562;2022-10-16T09:45:59;96607.97;;;18.43;66.70
28000;BME280;15328;50.860;10.562;2022-10-16T09:51:02;96616.84;;;18.43;66.46
28000;BME280;15328;50.860;10.562;2022-10-16T09:56:03;96623.06;;;18.54;66.02
28000;BME280;15328;50.860;10.562;2022-10-16T10:01:12;96628.69;;;18.42;65.98
28000;BME280;15328;50.860;10.562;2022-10-16T10:06:21;96621.63;;;18.31;66.56
28000;BME280;15328;50.860;10.562;2022-10-16T10:11:42;96620.91;;;18.46;66.48
28000;BME280;15328;50.860;10.562;2022-10-16T10:16:44;96633.31;;;18.52;66.92
28000;BME280;15328;50.860;10.562;2022-10-16T10:21:45;96629.03;;;18.61;67.04
28000;BME280;15328;50.860;10.562;2022-10-16T10:26:57;96655.56;;;18.32;68.22
28000;BME280;15328;50.860;10.562;2022-10-16T10:32:25;96652.28;;;18.20;68.00
28000;BME280;15328;50.860;10.562;2022-10-16T10:42:40;96657.69;;;18.30;68.92
28000;BME280;15328;50.860;10.562;2022-10-16T10:48:12;96659.00;;;18.22;69.08
28000;BME280;15328;50.860;10.562;2022-10-16T10:53:24;96666.00;;;18.23;68.84
28000;BME280;15328;50.860;10.562;2022-10-16T10:58:55;96666.53;;;18.20;69.22
28000;BME280;15328;50.860;10.562;2022-10-16T11:20:29;96678.44;;;18.35;69.63
28000;BME280;15328;50.860;10.562;2022-10-16T11:25:16;96685.44;;;18.83;67.83
28000;BME280;15328;50.860;10.562;2022-10-16T11:35:37;96681.28;;;19.33;65.53
28000;BME280;15328;50.860;10.562;2022-10-16T11:40:41;96680.81;;;19.82;64.32
28000;BME280;15328;50.860;10.562;2022-10-16T11:45:49;96695.38;;;20.11;61.23
28000;BME280;15328;50.860;10.562;2022-10-16T11:50:56;96688.84;;;20.48;60.62
28000;BME280;15328;50.860;10.562;2022-10-16T11:55:58;96687.72;;;20.64;58.27
28000;BME280;15328;50.860;10.562;2022-10-16T12:01:19;96683.69;;;20.61;57.96
28000;BME280;15328;50.860;10.562;2022-10-16T12:06:37;96690.63;;;20.88;58.41
28000;BME280;15328;50.860;10.562;2022-10-16T12:11:40;96685.09;;;21.08;57.12
28000;BME280;15328;50.860;10.562;2022-10-16T12:16:58;96682.44;;;21.52;56.69
28000;BME280;15328;50.860;10.562;2022-10-16T12:22:01;96677.19;;;21.66;56.23
28000;BME280;15328;50.860;10.562;2022-10-16T12:27:05;96691.63;;;21.51;56.19
28000;BME280;15328;50.860;10.562;2022-10-16T12:37:36;96690.78;;;21.12;57.27
28000;BME280;15328;50.860;10.562;2022-10-16T12:42:38;96692.50;;;20.87;57.68
28000;BME280;15328;50.860;10.562;2022-10-16T12:47:48;96697.09;;;20.87;57.97
28000;BME280;15328;50.860;10.562;2022-10-16T12:52:49;96695.22;;;20.77;58.13
28000;BME280;15328;50.860;10.562;2022-10-16T13:03:33;96701.72;;;20.76;58.06
28000;BME280;15328;50.860;10.562;2022-10-16T13:29:16;96727.47;;;20.53;58.66
28000;BME280;15328;50.860;10.562;2022-10-16T13:34:20;96727.47;;;20.48;59.32
28000;BME280;15328;50.860;10.562;2022-10-16T13:39:26;96730.47;;;20.42;59.13
28000;BME280;15328;50.860;10.562;2022-10-16T13:44:31;96738.53;;;20.52;58.64
28000;BME280;15328;50.860;10.562;2022-10-16T13:49:35;96734.78;;;20.27;58.85
28000;BME280;15328;50.860;10.562;2022-10-16T13:54:35;96741.28;;;20.16;59.19
28000;BME280;15328;50.860;10.562;2022-10-16T13:59:39;96742.88;;;20.22;59.56
28000;BME280;15328;50.860;10.562;2022-10-16T14:04:39;96741.81;;;20.08;59.96
28000;BME280;15328;50.860;10.562;2022-10-16T14:09:40;96741.56;;;20.04;60.36
28000;BME280;15328;50.860;10.562;2022-10-16T14:14:43;96749.38;;;20.06;60.25
28000;BME280;15328;50.860;10.562;2022-10-16T14:19:48;96755.31;;;19.98;60.04
28000;BME280;15328;50.860;10.562;2022-10-16T14:24:49;96755.03;;;19.94;60.15
28000;BME280;15328;50.860;10.562;2022-10-16T14:29:50;96761.78;;;19.92;60.17
28000;BME280;15328;50.860;10.562;2022-10-16T14:34:54;96763.97;;;20.00;60.12
28000;BME280;15328;50.860;10.562;2022-10-16T14:39:55;96763.97;;;20.00;59.90
28000;BME280;15328;50.860;10.562;2022-10-16T14:44:56;96769.88;;;19.92;60.07
28000;BME280;15328;50.860;10.562;2022-10-16T14:49:56;96782.84;;;19.85;60.45
28000;BME280;15328;50.860;10.562;2022-10-16T14:54:59;96790.41;;;19.83;60.71
28000;BME280;15328;50.860;10.562;2022-10-16T14:59:59;96778.78;;;19.77;61.05
28000;BME280;15328;50.860;10.562;2022-10-16T15:05:13;96776.31;;;19.65;61.30
28000;BME280;15328;50.860;10.562;2022-10-16T15:10:16;96774.94;;;19.53;61.22
28000;BME280;15328;50.860;10.562;2022-10-16T15:20:25;96781.59;;;19.30;61.80
28000;BME280;15328;50.860;10.562;2022-10-16T15:30:34;96805.50;;;19.11;62.75
28000;BME280;15328;50.860;10.562;2022-10-16T15:35:35;96799.28;;;19.05;63.16
28000;BME280;15328;50.860;10.562;2022-10-16T15:40:36;96785.81;;;19.00;63.42
28000;BME280;15328;50.860;10.562;2022-10-16T15:45:37;96797.53;;;18.79;64.49
28000;BME280;15328;50.860;10.562;2022-10-16T15:50:37;96797.50;;;18.74;64.59
28000;BME280;15328;50.860;10.562;2022-10-16T15:55:38;96793.88;;;18.58;65.19
28000;BME280;15328;50.860;10.562;2022-10-16T16:00:38;96798.94;;;18.49;65.45
28000;BME280;15328;50.860;10.562;2022-10-16T16:05:39;96808.84;;;18.39;65.66
28000;BME280;15328;50.860;10.562;2022-10-16T16:10:40;96802.50;;;18.23;66.23
28000;BME280;15328;50.860;10.562;2022-10-16T16:15:40;96808.09;;;18.11;66.39
28000;BME280;15328;50.860;10.562;2022-10-16T16:20:40;96814.69;;;17.99;66.84
28000;BME280;15328;50.860;10.562;2022-10-16T16:25:41;96815.19;;;17.96;66.96
28000;BME280;15328;50.860;10.562;2022-10-16T16:30:41;96822.97;;;17.92;67.26
28000;BME280;15328;50.860;10.562;2022-10-16T16:35:41;96829.69;;;17.89;67.76
28000;BME280;15328;50.860;10.562;2022-10-16T16:40:42;96832.59;;;17.83;68.22
28000;BME280;15328;50.860;10.562;2022-10-16T16:45:42;96835.81;;;17.85;68.45
28000;BME280;15328;50.860;10.562;2022-10-16T16:50:42;96849.19;;;17.80;68.74
28000;BME280;15328;50.860;10.562;2022-10-16T16:55:43;96858.34;;;17.79;68.64
28000;BME280;15328;50.860;10.562;2022-10-16T17:00:46;96856.78;;;17.83;68.65
28000;BME280;15328;50.860;10.562;2022-10-16T17:06:14;96861.28;;;17.77;68.86
28000;BME280;15328;50.860;10.562;2022-10-16T17:11:22;96865.81;;;17.72;68.76
28000;BME280;15328;50.860;10.562;2022-10-16T17:16:27;96871.69;;;17.69;69.32
28000;BME280;15328;50.860;10.562;2022-10-16T17:21:28;96874.56;;;17.62;69.56
28000;BME280;15328;50.860;10.562;2022-10-16T17:26:29;96873.94;;;17.55;69.72
28000;BME280;15328;50.860;10.562;2022-10-16T17:31:33;96883.31;;;17.52;69.55
28000;BME280;15328;50.860;10.562;2022-10-16T17:36:35;96895.88;;;17.47;69.62
28000;BME280;15328;50.860;10.562;2022-10-16T17:41:36;96888.31;;;17.44;69.72
28000;BME280;15328;50.860;10.562;2022-10-16T17:46:36;96894.38;;;17.34;69.89
28000;BME280;15328;50.860;10.562;2022-10-16T17:51:37;96888.94;;;17.29;70.03
28000;BME280;15328;50.860;10.562;2022-10-16T17:56:37;96895.84;;;17.25;70.13
28000;BME280;15328;50.860;10.562;2022-10-16T18:01:38;96894.56;;;17.27;70.54
28000;BME280;15328;50.860;10.562;2022-10-16T18:06:42;96899.44;;;17.30;70.62
28000;BME280;15328;50.860;10.562;2022-10-16T18:11:43;96896.06;;;17.40;71.06
28000;BME280;15328;50.860;10.562;2022-10-16T18:16:44;96898.06;;;17.50;70.89
28000;BME280;15328;50.860;10.562;2022-10-16T18:21:44;96907.28;;;17.54;71.06
28000;BME280;15328;50.860;10.562;2022-10-16T18:26:45;96901.72;;;17.60;70.97
28000;BME280;15328;50.860;10.562;2022-10-16T18:31:45;96912.78;;;17.64;70.78
28000;BME280;15328;50.860;10.562;2022-10-16T18:36:46;96912.31;;;17.67;70.54
28000;BME280;15328;50.860;10.562;2022-10-16T18:41:46;96919.78;;;17.65;70.57
28000;BME280;15328;50.860;10.562;2022-10-16T18:46:46;96921.09;;;17.63;70.60
28000;BME280;15328;50.860;10.562;2022-10-16T18:51:47;96928.59;;;17.60;70.31
28000;BME280;15328;50.860;10.562;2022-10-16T18:56:51;96940.28;;;17.49;69.83
28000;BME280;15328;50.860;10.562;2022-10-16T19:01:51;96940.78;;;17.46;70.24
28000;BME280;15328;50.860;10.562;2022-10-16T19:06:52;96936.97;;;17.42;71.13
28000;BME280;15328;50.860;10.562;2022-10-16T19:11:53;96941.59;;;17.47;70.86
28000;BME280;15328;50.860;10.562;2022-10-16T19:16:53;96941.84;;;17.45;70.61
28000;BME280;15328;50.860;10.562;2022-10-16T19:21:53;96946.97;;;17.47;70.89
28000;BME280;15328;50.860;10.562;2022-10-16T19:27:10;96946.66;;;17.43;70.93
28000;BME280;15328;50.860;10.562;2022-10-16T19:32:10;96945.34;;;17.46;71.32
28000;BME280;15328;50.860;10.562;2022-10-16T19:37:11;96957.97;;;17.45;71.67
28000;BME280;15328;50.860;10.562;2022-10-16T19:42:11;96955.22;;;17.40;71.81
28000;BME280;15328;50.860;10.562;2022-10-16T19:47:11;96957.16;;;17.45;72.28
28000;BME280;15328;50.860;10.562;2022-10-16T19:52:12;96970.19;;;17.53;71.88
28000;BME280;15328;50.860;10.562;2022-10-16T19:57:12;96964.56;;;17.54;71.82
28000;BME280;15328;50.860;10.562;2022-10-16T20:02:13;96974.09;;;17.62;71.50
28000;BME280;15328;50.860;10.562;2022-10-16T20:07:14;96973.34;;;17.67;71.41
28000;BME280;15328;50.860;10.562;2022-10-16T20:12:15;96972.59;;;17.71;71.32
28000;BME280;15328;50.860;10.562;2022-10-16T20:17:16;96965.66;;;17.75;71.45
28000;BME280;15328;50.860;10.562;2022-10-16T20:22:16;96976.03;;;17.67;72.03
28000;BME280;15328;50.860;10.562;2022-10-16T20:27:17;96981.84;;;17.80;71.37
28000;BME280;15328;50.860;10.562;2022-10-16T20:32:17;96982.38;;;17.77;71.59
28000;BME280;15328;50.860;10.562;2022-10-16T20:37:18;96986.44;;;17.80;71.54
28000;BME280;15328;50.860;10.562;2022-10-16T20:42:18;96993.69;;;17.79;71.52
28000;BME280;15328;50.860;10.562;2022-10-16T20:47:18;97006.72;;;17.87;71.19
28000;BME280;15328;50.860;10.562;2022-10-16T20:52:19;96995.56;;;17.79;71.51
28000;BME280;15328;50.860;10.562;2022-10-16T20:57:19;97004.09;;;17.92;70.76
28000;BME280;15328;50.860;10.562;2022-10-16T21:02:21;97005.09;;;17.86;71.07
28000;BME280;15328;50.860;10.562;2022-10-16T21:07:21;97014.81;;;17.87;70.81
28000;BME280;15328;50.860;10.562;2022-10-16T21:12:25;97006.16;;;17.85;70.74
28000;BME280;15328;50.860;10.562;2022-10-16T21:17:26;96994.50;;;17.80;70.13
28000;BME280;15328;50.860;10.562;2022-10-16T21:22:30;97008.97;;;17.74;70.55
28000;BME280;15328;50.860;10.562;2022-10-16T21:27:40;97012.72;;;17.73;70.41
28000;BME280;15328;50.860;10.562;2022-10-16T21:32:41;97018.91;;;17.73;70.07
28000;BME280;15328;50.860;10.562;2022-10-16T21:37:41;97008.16;;;17.73;69.82
28000;BME280;15328;50.860;10.562;2022-10-16T21:42:41;97008.69;;;17.75;69.66
28000;BME280;15328;50.860;10.562;2022-10-16T21:47:42;97010.28;;;17.71;69.73
28000;BME280;15328;50.860;10.562;2022-10-16T21:52:42;97011.00;;;17.67;69.38
28000;BME280;15328;50.860;10.562;2022-10-16T21:57:42;97015.75;;;17.59;69.34
28000;BME280;15328;50.860;10.562;2022-10-16T22:02:43;97007.75;;;17.48;69.30
28000;BME280;15328;50.860;10.562;2022-10-16T22:07:43;97008.25;;;17.45;69.44
28000;BME280;15328;50.860;10.562;2022-10-16T22:12:43;97006.13;;;17.47;69.72
28000;BME280;15328;50.860;10.562;2022-10-16T22:17:43;97005.31;;;17.46;69.68
28000;BME280;15328;50.860;10.562;2022-10-16T22:22:44;97008.00;;;17.46;69.54
28000;BME280;15328;50.860;10.562;2022-10-16T22:27:44;97009.06;;;17.45;69.99
28000;BME280;15328;50.860;10.562;2022-10-16T22:32:44;97011.25;;;17.48;69.93
28000;BME280;15328;50.860;10.562;2022-10-16T22:37:45;97007.38;;;17.39;69.85
28000;BME280;15328;50.860;10.562;2022-10-16T22:42:45;97003.81;;;17.34;69.96
28000;BME280;15328;50.860;10.562;2022-10-16T22:47:45;96994.63;;;17.29;69.62
28000;BME280;15328;50.860;10.562;2022-10-16T22:52:46;97004.56;;;17.29;69.53
28000;BME280;15328;50.860;10.562;2022-10-16T22:57:46;96998.63;;;17.27;69.63
28000;BME280;15328;50.860;10.562;2022-10-16T23:02:46;96986.38;;;17.19;69.95
28000;BME280;15328;50.860;10.562;2022-10-16T23:07:47;96982.06;;;17.18;70.10
28000;BME280;15328;50.860;10.562;2022-10-16T23:12:48;96981.25;;;17.18;69.83
28000;BME280;15328;50.860;10.562;2022-10-16T23:17:49;96982.63;;;17.20;70.10
28000;BME280;15328;50.860;10.562;2022-10-16T23:22:49;96981.50;;;17.16;69.42
28000;BME280;15328;50.860;10.562;2022-10-16T23:27:52;96980.53;;;17.06;69.75
28000;BME280;15328;50.860;10.562;2022-10-16T23:32:53;96978.34;;;17.03;70.19
28000;BME280;15328;50.860;10.562;2022-10-16T23:37:53;96990.22;;;17.07;69.62
28000;BME280;15328;50.860;10.562;2022-10-16T23:42:53;96994.88;;;17.11;69.60
28000;BME280;15328;50.860;10.562;2022-10-16T23:47:54;97001.44;;;17.20;68.79
28000;BME280;15328;50.860;10.562;2022-10-16T23:52:54;97008.13;;;17.18;68.86
28000;BME280;15328;50.860;10.562;2022-10-16T23:57:54;97006.09;;;17.25;68.20
